Crossville Memorial Whitson Field Crossville US
ICAO: KCSV
IATA: CSV
Category: Medium
Scheduled Services: No

Elevation: 1881 ft
TransAlt. 18000 ft.

Airport Communications:
ASOS:120.625
ATLANTA CNTR:133.6
NASHVILLE RDO:122.2
CTAF/UNICOM:122.7

KCSV Zoom In..

If you have problems with the map follow the link
https://www.worldairports.se/pages/airport.php?
ICAO=KCSV

Runways:

(A) RW 08 length 5418 ft width 100 ft
---- / hdg 75

(B) RW 26 length 5418 ft width 100 ft
ILS 109.10 / hdg 255

Location; KCSV
Day. 06 / Time. 12.53 Zulu
* Altimeter: 30.14
* Temperature: 08° c. 46.4°f.
* Wind from: 170° Speed 03 kn.
Dewpoint: -02° c.
Visibility: 10 Statute Miles.
Clouds: Broken 11000 ft.

KCSV 061253Z AUTO 17003KT 10SM BKN110 08/M02 A3014 RMK AO2 SLP207 T00831022


Wind From 170°
Speed 03 kn.

 
 
jpsmedia worldairports.se 2019   terms of use